Time;durP1;ratioP1;P1;durP2;ratioP2;P2;SDS_P1;SDS_P2;PMS_P1;PMS_P2;Temp;Humidity;BMP_temperature;BMP_pressure;BME280_temperature;BME280_humidity;BME280_pressure;Samples;Min_cycle;Max_cycle;Signal;HPM_P1;HPM_P2
2023/07/31 00:01:13;;;;;;;0.13;0.13;;;16.90;86.70;;;;;;4983991;28;20035;-79
2023/07/31 00:03:39;;;;;;;0.00;0.00;;;16.80;86.50;;;;;;4986356;28;20082;-77
2023/07/31 00:06:04;;;;;;;0.00;0.00;;;16.90;86.50;;;;;;4986524;28;20379;-77
2023/07/31 00:08:30;;;;;;;0.20;0.20;;;16.80;86.70;;;;;;4986504;28;20050;-77
2023/07/31 00:10:56;;;;;;;0.00;0.00;;;16.80;86.90;;;;;;4986276;28;20098;-77
2023/07/31 00:13:22;;;;;;;0.10;0.10;;;16.80;86.80;;;;;;4986283;28;20026;-76
2023/07/31 00:15:47;;;;;;;0.03;0.03;;;16.80;87.10;;;;;;4985916;28;20064;-76
2023/07/31 00:18:14;;;;;;;0.27;0.27;;;16.60;87.60;;;;;;4985937;28;20556;-79
2023/07/31 00:20:39;;;;;;;0.10;0.10;;;16.50;87.90;;;;;;4983295;28;20105;-77
2023/07/31 00:23:05;;;;;;;0.00;0.00;;;16.50;88.30;;;;;;4984299;28;20056;-78
2023/07/31 00:25:31;;;;;;;0.10;0.10;;;16.50;88.50;;;;;;4981097;28;20585;-75
2023/07/31 00:27:56;;;;;;;5.87;0.93;;;16.40;88.90;;;;;;4978679;28;20044;-77
2023/07/31 00:30:22;;;;;;;0.00;0.00;;;16.30;89.30;;;;;;4985920;28;20133;-76
2023/07/31 00:32:48;;;;;;;0.00;0.00;;;16.30;89.70;;;;;;4986147;28;20027;-77
2023/07/31 00:35:13;;;;;;;0.00;0.00;;;16.30;90.00;;;;;;4985945;28;20022;-76
2023/07/31 00:37:39;;;;;;;0.10;0.10;;;16.40;89.60;;;;;;4985371;28;20116;-77
2023/07/31 00:40:06;;;;;;;0.00;0.00;;;16.30;89.80;;;;;;4985647;28;20076;-76
2023/07/31 00:42:31;;;;;;;0.00;0.00;;;16.30;89.90;;;;;;4985575;28;20035;-77
2023/07/31 00:44:57;;;;;;;0.00;0.00;;;16.20;89.90;;;;;;4986204;28;20116;-76
2023/07/31 00:47:23;;;;;;;0.10;0.10;;;16.20;90.00;;;;;;4985573;28;20042;-77
2023/07/31 00:49:48;;;;;;;0.00;0.00;;;16.20;90.00;;;;;;4973092;28;20034;-77
2023/07/31 00:52:14;;;;;;;0.87;0.40;;;16.20;90.00;;;;;;4986850;28;20109;-76
2023/07/31 00:54:40;;;;;;;0.77;0.47;;;16.20;89.90;;;;;;4986529;28;20026;-77
2023/07/31 00:57:07;;;;;;;0.10;0.10;;;16.10;90.00;;;;;;4985553;28;20544;-77
2023/07/31 00:59:33;;;;;;;0.00;0.00;;;16.10;90.20;;;;;;4975893;28;20034;-78
2023/07/31 01:01:59;;;;;;;0.20;0.20;;;16.00;90.50;;;;;;4983896;28;20050;-77
2023/07/31 01:04:26;;;;;;;0.00;0.00;;;15.90;90.70;;;;;;4985164;28;20031;-77
2023/07/31 01:07:03;;;;;;;0.10;0.10;;;15.90;90.70;;;;;;4985403;28;20038;-77
2023/07/31 01:09:57;;;;;;;0.00;0.00;;;15.90;90.90;;;;;;4982990;28;20045;-79
2023/07/31 01:12:25;;;;;;;0.00;0.00;;;15.90;90.80;;;;;;4985564;28;20022;-78
2023/07/31 01:15:11;;;;;;;0.20;0.20;;;15.90;90.70;;;;;;4986202;28;20243;-76
2023/07/31 01:17:41;;;;;;;0.32;0.30;;;15.80;91.10;;;;;;4981523;28;20081;-77
2023/07/31 01:20:23;;;;;;;0.08;0.08;;;15.70;91.30;;;;;;4985764;28;20038;-77
2023/07/31 01:22:49;;;;;;;0.00;0.00;;;15.70;91.30;;;;;;4985191;28;20128;-77
2023/07/31 01:25:36;;;;;;;0.00;0.00;;;15.70;91.20;;;;;;4985011;28;20125;-76
2023/07/31 01:28:10;;;;;;;0.10;0.10;;;15.60;91.30;;;;;;4978139;28;20112;-76
2023/07/31 01:30:43;;;;;;;0.10;0.10;;;15.70;91.30;;;;;;4980843;28;20082;-76
2023/07/31 01:33:09;;;;;;;0.32;0.32;;;15.70;91.10;;;;;;4984653;28;20609;-77
2023/07/31 01:35:36;;;;;;;0.15;0.15;;;15.70;91.20;;;;;;4984828;28;20460;-78
2023/07/31 01:38:02;;;;;;;0.10;0.10;;;15.70;91.20;;;;;;4984556;28;20501;-77
2023/07/31 01:40:28;;;;;;;0.10;0.10;;;15.70;91.30;;;;;;4984592;28;20026;-76
2023/07/31 01:42:53;;;;;;;0.07;0.07;;;15.60;91.60;;;;;;4984815;28;20097;-77
2023/07/31 01:45:19;;;;;;;0.10;0.10;;;15.60;91.60;;;;;;4984397;28;20496;-76
2023/07/31 01:47:45;;;;;;;2.13;0.93;;;15.60;91.50;;;;;;4983409;28;20026;-77
2023/07/31 01:50:11;;;;;;;0.00;0.00;;;15.70;91.40;;;;;;4972317;28;20038;-76
2023/07/31 01:52:36;;;;;;;0.10;0.10;;;15.50;91.70;;;;;;4988084;28;20613;-77
2023/07/31 01:55:02;;;;;;;1.25;1.10;;;15.40;92.20;;;;;;4972184;28;20189;-77
2023/07/31 01:57:28;;;;;;;0.00;0.00;;;15.20;92.80;;;;;;4984281;28;20565;-77
2023/07/31 01:59:54;;;;;;;4.00;0.83;;;15.10;93.30;;;;;;4984404;28;20033;-76
2023/07/31 02:02:20;;;;;;;0.00;0.00;;;15.00;93.60;;;;;;4983208;28;20812;-75
2023/07/31 02:04:47;;;;;;;0.00;0.00;;;15.00;93.60;;;;;;4979354;28;20038;-75
2023/07/31 02:07:12;;;;;;;0.10;0.10;;;15.10;93.70;;;;;;4981242;28;20034;-76
2023/07/31 02:09:38;;;;;;;0.52;0.52;;;15.00;93.60;;;;;;4983876;28;20038;-75
2023/07/31 02:12:04;;;;;;;0.43;0.43;;;15.10;93.60;;;;;;4983759;28;20031;-75
2023/07/31 02:14:29;;;;;;;0.00;0.00;;;15.30;92.80;;;;;;4983911;28;20026;-76
2023/07/31 02:16:55;;;;;;;0.30;0.30;;;15.20;92.90;;;;;;4983480;28;20041;-76
2023/07/31 02:19:21;;;;;;;0.20;0.20;;;15.00;93.60;;;;;;4984000;28;20452;-77
2023/07/31 02:21:47;;;;;;;0.30;0.30;;;14.90;93.90;;;;;;4983848;28;20112;-76
2023/07/31 02:24:12;;;;;;;0.10;0.10;;;14.90;94.00;;;;;;4982693;28;20030;-77
2023/07/31 02:26:38;;;;;;;0.00;0.00;;;14.90;93.80;;;;;;4982437;28;20046;-76
2023/07/31 02:29:04;;;;;;;0.57;0.25;;;14.80;94.10;;;;;;4984304;28;20034;-77
2023/07/31 02:31:29;;;;;;;0.05;0.05;;;14.80;94.30;;;;;;4983972;28;20580;-77
2023/07/31 02:33:55;;;;;;;0.20;0.20;;;14.80;94.30;;;;;;4983965;28;20041;-76
2023/07/31 02:36:21;;;;;;;0.37;0.37;;;14.80;94.60;;;;;;4979703;28;20473;-76
2023/07/31 02:38:46;;;;;;;0.00;0.00;;;14.70;94.70;;;;;;4984318;28;20031;-76
2023/07/31 02:41:12;;;;;;;0.17;0.17;;;14.70;94.80;;;;;;4983813;28;20101;-77
2023/07/31 02:43:37;;;;;;;0.00;0.00;;;14.70;94.70;;;;;;4984508;28;20058;-76
2023/07/31 02:46:03;;;;;;;0.10;0.10;;;14.70;94.60;;;;;;4982236;28;20501;-76
2023/07/31 02:48:29;;;;;;;0.30;0.30;;;14.70;94.50;;;;;;4977366;28;20768;-76
2023/07/31 02:50:54;;;;;;;0.20;0.20;;;14.80;94.20;;;;;;4977407;28;20018;-76
2023/07/31 02:53:20;;;;;;;1.27;1.20;;;14.60;94.50;;;;;;4987302;28;20101;-77
2023/07/31 02:55:46;;;;;;;0.10;0.10;;;14.50;94.80;;;;;;4983787;28;20038;-76
2023/07/31 02:58:12;;;;;;;0.17;0.17;;;14.50;95.00;;;;;;4981036;28;20030;-76
2023/07/31 03:00:44;;;;;;;0.05;0.05;;;14.40;95.20;;;;;;4977166;28;20027;-76
2023/07/31 03:03:11;;;;;;;0.20;0.20;;;14.30;95.40;;;;;;4978352;28;20138;-76
2023/07/31 03:05:36;;;;;;;0.40;0.40;;;14.40;95.40;;;;;;4978116;28;20026;-76
2023/07/31 03:08:02;;;;;;;0.10;0.10;;;14.40;95.50;;;;;;4982095;28;20073;-77
2023/07/31 03:10:28;;;;;;;0.27;0.27;;;14.40;95.20;;;;;;4983081;28;20022;-75
2023/07/31 03:12:53;;;;;;;0.20;0.20;;;14.50;95.00;;;;;;4983678;28;20541;-76
2023/07/31 03:15:19;;;;;;;0.10;0.10;;;14.50;95.00;;;;;;4983018;28;20035;-77
2023/07/31 03:17:45;;;;;;;26.83;0.85;;;14.50;95.20;;;;;;4982756;28;20585;-75
2023/07/31 03:20:11;;;;;;;0.60;0.40;;;14.40;95.20;;;;;;4983169;28;20069;-76
2023/07/31 03:22:36;;;;;;;0.07;0.07;;;14.50;94.80;;;;;;4981721;28;20054;-76
2023/07/31 03:25:06;;;;;;;0.17;0.17;;;14.40;94.80;;;;;;4982494;28;20096;-77
2023/07/31 03:27:31;;;;;;;0.20;0.20;;;14.40;95.00;;;;;;4982813;28;20069;-77
2023/07/31 03:29:57;;;;;;;0.08;0.08;;;14.30;95.20;;;;;;4983828;28;20058;-76
2023/07/31 03:32:23;;;;;;;0.08;0.08;;;14.30;95.20;;;;;;4983304;28;20494;-76
2023/07/31 03:34:49;;;;;;;0.13;0.13;;;14.40;95.10;;;;;;4983573;28;20486;-76
2023/07/31 03:37:15;;;;;;;0.43;0.43;;;14.20;95.40;;;;;;4983109;28;20125;-77
2023/07/31 03:39:41;;;;;;;0.00;0.00;;;14.10;95.80;;;;;;4983348;28;20035;-76
2023/07/31 03:42:06;;;;;;;0.47;0.47;;;14.10;95.70;;;;;;4983109;28;20084;-75
2023/07/31 03:44:32;;;;;;;0.10;0.10;;;14.10;95.70;;;;;;4983619;28;20026;-75
2023/07/31 03:46:58;;;;;;;0.00;0.00;;;14.00;95.90;;;;;;4983240;28;20081;-76
2023/07/31 03:49:23;;;;;;;1.13;0.93;;;14.00;96.10;;;;;;4966348;28;20019;-76
2023/07/31 03:51:49;;;;;;;0.23;0.23;;;13.90;96.20;;;;;;4982924;28;20034;-75
2023/07/31 03:54:15;;;;;;;0.00;0.00;;;13.90;96.50;;;;;;4986792;28;20037;-76
2023/07/31 03:56:41;;;;;;;0.00;0.00;;;13.90;96.50;;;;;;4971116;28;20394;-77
2023/07/31 03:59:06;;;;;;;2.80;1.65;;;13.80;96.70;;;;;;4971818;28;20027;-76
2023/07/31 04:01:32;;;;;;;0.20;0.20;;;13.80;96.70;;;;;;4986271;28;20030;-77
2023/07/31 04:03:58;;;;;;;0.30;0.30;;;13.70;96.70;;;;;;4982969;28;20027;-77
2023/07/31 04:06:24;;;;;;;0.17;0.17;;;13.70;96.60;;;;;;4982606;28;20037;-77
2023/07/31 04:08:49;;;;;;;0.10;0.10;;;13.60;97.40;;;;;;4983093;28;20030;-76
2023/07/31 04:11:15;;;;;;;0.20;0.20;;;13.50;97.70;;;;;;4982939;28;20027;-75
2023/07/31 04:13:41;;;;;;;0.38;0.38;;;13.50;97.90;;;;;;4982740;28;20089;-75
2023/07/31 04:16:06;;;;;;;0.10;0.10;;;13.50;98.20;;;;;;4982482;28;20034;-75
2023/07/31 04:18:32;;;;;;;0.10;0.10;;;13.40;98.20;;;;;;4981055;28;20796;-75
2023/07/31 04:20:58;;;;;;;0.10;0.10;;;13.40;98.60;;;;;;4983369;28;20050;-75
2023/07/31 04:23:25;;;;;;;0.10;0.10;;;13.30;98.60;;;;;;4982724;28;20069;-75
2023/07/31 04:25:50;;;;;;;0.20;0.20;;;13.30;98.80;;;;;;4984002;28;20297;-76
2023/07/31 04:28:16;;;;;;;0.10;0.10;;;13.20;99.30;;;;;;4986470;28;20082;-75
2023/07/31 04:30:42;;;;;;;0.25;0.25;;;13.30;99.20;;;;;;4978527;28;20030;-74
2023/07/31 04:33:08;;;;;;;0.10;0.10;;;13.30;98.70;;;;;;4986075;28;20436;-76
2023/07/31 04:35:33;;;;;;;0.10;0.10;;;13.30;98.70;;;;;;4986091;28;20509;-76
2023/07/31 04:37:59;;;;;;;0.10;0.10;;;13.20;98.70;;;;;;4986283;28;20142;-76
2023/07/31 04:40:25;;;;;;;0.10;0.10;;;13.20;98.90;;;;;;4985930;28;21211;-76
2023/07/31 04:42:51;;;;;;;0.13;0.13;;;13.20;98.70;;;;;;4985320;28;20040;-75
2023/07/31 04:45:16;;;;;;;0.47;0.47;;;13.30;98.80;;;;;;4984907;28;20037;-75
2023/07/31 04:47:42;;;;;;;0.20;0.20;;;13.30;98.40;;;;;;4984737;28;20385;-75
2023/07/31 04:50:08;;;;;;;1.03;0.83;;;13.30;98.10;;;;;;4983995;28;20104;-75
2023/07/31 04:52:34;;;;;;;0.20;0.20;;;13.50;97.80;;;;;;4984932;28;20065;-76
2023/07/31 04:54:59;;;;;;;0.70;0.70;;;13.60;97.30;;;;;;4985478;28;20038;-75
2023/07/31 04:57:25;;;;;;;0.10;0.10;;;13.70;96.80;;;;;;4985047;28;20541;-77
2023/07/31 04:59:51;;;;;;;0.20;0.20;;;13.90;95.80;;;;;;4984386;28;20030;-74
2023/07/31 05:02:16;;;;;;;0.10;0.10;;;14.20;94.90;;;;;;4983243;28;20053;-75
2023/07/31 05:04:42;;;;;;;0.10;0.10;;;14.50;93.90;;;;;;4980385;28;20144;-75
2023/07/31 05:07:08;;;;;;;0.10;0.10;;;14.80;93.10;;;;;;4983830;28;20041;-75
2023/07/31 05:09:33;;;;;;;0.10;0.10;;;14.50;93.40;;;;;;4985161;28;20133;-75
2023/07/31 05:11:59;;;;;;;0.57;0.57;;;13.90;94.70;;;;;;4984995;28;20027;-75
2023/07/31 05:14:26;;;;;;;0.10;0.10;;;13.90;95.40;;;;;;4985370;28;21263;-75
2023/07/31 05:16:52;;;;;;;0.28;0.20;;;14.10;95.40;;;;;;4984837;28;20524;-75
2023/07/31 05:19:18;;;;;;;0.00;0.00;;;14.20;94.80;;;;;;4985288;28;20498;-76
2023/07/31 05:21:43;;;;;;;0.00;0.00;;;14.30;95.40;;;;;;4984482;28;20122;-75
2023/07/31 05:24:10;;;;;;;0.00;0.00;;;14.90;93.20;;;;;;4984215;28;20033;-75
2023/07/31 05:26:36;;;;;;;0.65;0.22;;;14.70;93.80;;;;;;4985185;28;20034;-75
2023/07/31 05:29:02;;;;;;;0.10;0.10;;;15.00;93.20;;;;;;4992038;28;20037;-75
2023/07/31 05:31:28;;;;;;;0.20;0.20;;;15.10;92.70;;;;;;4984911;28;20042;-75
2023/07/31 05:33:53;;;;;;;0.10;0.10;;;15.20;92.70;;;;;;4984347;28;20038;-75
2023/07/31 05:36:19;;;;;;;0.00;0.00;;;15.20;92.40;;;;;;4979371;28;20031;-74
2023/07/31 05:38:45;;;;;;;0.00;0.00;;;15.50;92.30;;;;;;4985582;28;20698;-75
2023/07/31 05:41:13;;;;;;;0.00;0.00;;;16.70;88.40;;;;;;4984182;28;20104;-75
2023/07/31 05:43:39;;;;;;;0.80;0.25;;;15.40;91.00;;;;;;4978936;28;20440;-74
2023/07/31 05:46:06;;;;;;;0.13;0.13;;;14.90;92.70;;;;;;4972388;28;20402;-74
2023/07/31 05:48:33;;;;;;;;;;;14.80;93.60;;;;;;4981007;28;20306;-72
2023/07/31 05:50:59;;;;;;;0.00;0.00;;;14.80;94.70;;;;;;4984533;28;19967;-72
2023/07/31 05:53:25;;;;;;;0.00;0.00;;;14.40;95.20;;;;;;4984515;28;20034;-72
2023/07/31 05:55:51;;;;;;;0.10;0.10;;;14.70;95.50;;;;;;4983929;28;20038;-72
2023/07/31 05:58:16;;;;;;;0.13;0.13;;;14.60;95.50;;;;;;4984356;28;20509;-71
2023/07/31 06:00:42;;;;;;;0.00;0.00;;;14.60;96.10;;;;;;4984127;28;20557;-72
2023/07/31 06:03:08;;;;;;;0.00;0.00;;;15.00;94.90;;;;;;4984603;28;20033;-72
2023/07/31 06:05:33;;;;;;;0.10;0.10;;;15.20;94.00;;;;;;4983964;28;20139;-72
2023/07/31 06:07:59;;;;;;;0.00;0.00;;;15.20;94.00;;;;;;4984880;28;20387;-72
2023/07/31 06:10:25;;;;;;;0.20;0.20;;;15.80;92.40;;;;;;4984107;28;20919;-72
2023/07/31 06:12:51;;;;;;;0.05;0.05;;;17.30;88.80;;;;;;4984705;28;20034;-72
2023/07/31 06:15:18;;;;;;;0.10;0.10;;;18.30;84.40;;;;;;4984502;28;20036;-72
2023/07/31 06:17:44;;;;;;;0.25;0.25;;;19.20;81.20;;;;;;4987615;28;20038;-73
2023/07/31 06:20:10;;;;;;;0.00;0.00;;;19.90;77.10;;;;;;4984989;28;20026;-72
2023/07/31 06:22:36;;;;;;;0.00;0.00;;;21.00;73.20;;;;;;4984028;28;20054;-72
2023/07/31 06:25:02;;;;;;;0.00;0.00;;;22.20;70.50;;;;;;4984025;28;20960;-72
2023/07/31 06:27:28;;;;;;;0.00;0.00;;;23.50;65.60;;;;;;4980743;28;20226;-75
2023/07/31 06:29:54;;;;;;;0.00;0.00;;;24.00;63.80;;;;;;4981002;28;21563;-76
2023/07/31 06:32:19;;;;;;;0.77;0.57;;;24.60;61.30;;;;;;4972023;28;20082;-77
2023/07/31 06:34:45;;;;;;;0.00;0.00;;;25.40;58.50;;;;;;4979419;28;20077;-76
2023/07/31 06:37:11;;;;;;;0.00;0.00;;;25.60;57.90;;;;;;4971378;28;20285;-76
2023/07/31 06:39:37;;;;;;;0.22;0.22;;;26.20;56.90;;;;;;4976138;28;20058;-76
2023/07/31 06:42:03;;;;;;;0.03;0.03;;;26.00;57.20;;;;;;4982958;28;20026;-76
2023/07/31 06:44:29;;;;;;;0.00;0.00;;;26.40;56.40;;;;;;4983172;28;20019;-76
2023/07/31 06:46:55;;;;;;;0.00;0.00;;;26.50;54.80;;;;;;4982683;28;20045;-76
2023/07/31 06:49:20;;;;;;;0.00;0.00;;;26.30;54.00;;;;;;4979558;28;20534;-77
2023/07/31 06:51:46;;;;;;;0.10;0.10;;;26.30;54.60;;;;;;4979583;28;20487;-76
2023/07/31 06:54:12;;;;;;;0.00;0.00;;;26.50;54.40;;;;;;4982422;28;20027;-76
2023/07/31 06:56:38;;;;;;;0.10;0.10;;;25.70;55.50;;;;;;4982653;28;20062;-76
2023/07/31 06:59:06;;;;;;;0.00;0.00;;;26.50;53.50;;;;;;4977446;28;20037;-76
2023/07/31 07:01:32;;;;;;;0.00;0.00;;;27.30;52.10;;;;;;4976788;28;20804;-76
2023/07/31 07:03:58;;;;;;;0.17;0.17;;;26.80;53.40;;;;;;4980704;28;20030;-76
2023/07/31 07:06:23;;;;;;;0.00;0.00;;;27.70;52.60;;;;;;4979046;28;20033;-76
2023/07/31 07:08:49;;;;;;;0.00;0.00;;;28.60;50.90;;;;;;4980316;28;20592;-76
2023/07/31 07:11:15;;;;;;;0.00;0.00;;;28.00;50.40;;;;;;4976703;28;20113;-75
2023/07/31 07:13:40;;;;;;;0.00;0.00;;;28.00;50.10;;;;;;4982833;28;20071;-76
2023/07/31 07:16:06;;;;;;;0.00;0.00;;;28.10;50.20;;;;;;4976873;28;20023;-76
2023/07/31 07:18:32;;;;;;;0.00;0.00;;;27.80;50.90;;;;;;4982550;28;20046;-76
2023/07/31 07:20:58;;;;;;;0.00;0.00;;;28.00;50.70;;;;;;4982882;28;20038;-76
2023/07/31 07:23:23;;;;;;;;;;;28.00;50.50;;;;;;4983774;28;20042;-76
2023/07/31 07:25:49;;;;;;;0.00;0.00;;;29.00;49.10;;;;;;4981607;28;20714;-76
2023/07/31 07:28:15;;;;;;;;;;;28.90;48.00;;;;;;4983670;28;20444;-76
2023/07/31 07:30:41;;;;;;;0.10;0.10;;;28.60;48.80;;;;;;4981542;28;20314;-76
2023/07/31 07:33:06;;;;;;;;;;;29.00;48.60;;;;;;4982420;28;20043;-76
2023/07/31 07:35:35;;;;;;;0.32;0.20;;;29.30;46.60;;;;;;4978386;28;20692;-76
2023/07/31 07:38:02;;;;;;;0.00;0.00;;;30.70;46.20;;;;;;4974715;28;20057;-76
2023/07/31 07:40:28;;;;;;;0.10;0.10;;;31.20;43.70;;;;;;4978331;28;20034;-76
2023/07/31 07:42:54;;;;;;;;;;;30.90;45.80;;;;;;4980382;28;20042;-76
2023/07/31 07:45:19;;;;;;;1.75;0.52;;;31.10;45.60;;;;;;4979050;28;19949;-76
2023/07/31 07:47:45;;;;;;;0.00;0.00;;;32.30;45.00;;;;;;4974089;28;20142;-76
2023/07/31 07:50:11;;;;;;;0.90;0.30;;;32.70;44.00;;;;;;4977866;28;20101;-76
2023/07/31 07:52:37;;;;;;;0.00;0.00;;;33.00;41.70;;;;;;4982549;28;20076;-76
2023/07/31 07:55:03;;;;;;;0.00;0.00;;;33.10;42.70;;;;;;4980432;28;20118;-76
2023/07/31 07:57:29;;;;;;;0.00;0.00;;;33.30;41.60;;;;;;4983336;28;20065;-76
2023/07/31 07:59:55;;;;;;;0.00;0.00;;;33.90;41.40;;;;;;4981253;28;20034;-76
2023/07/31 08:02:22;;;;;;;0.15;0.15;;;34.10;42.30;;;;;;4978756;28;20444;-76
2023/07/31 08:04:48;;;;;;;0.00;0.00;;;33.90;41.30;;;;;;4981384;28;20030;-76
2023/07/31 08:07:14;;;;;;;0.13;0.10;;;34.30;41.00;;;;;;4981374;28;20607;-76
2023/07/31 08:09:40;;;;;;;0.00;0.00;;;34.30;41.60;;;;;;4985782;28;20035;-77
2023/07/31 08:12:06;;;;;;;0.15;0.10;;;34.50;41.30;;;;;;4984281;28;20030;-76
2023/07/31 08:14:32;;;;;;;0.00;0.00;;;34.60;41.10;;;;;;4985963;28;20092;-76
2023/07/31 08:16:58;;;;;;;0.00;0.00;;;35.20;40.00;;;;;;4986112;28;20038;-77
2023/07/31 08:19:23;;;;;;;0.08;0.08;;;33.40;39.50;;;;;;4984888;28;20038;-76
2023/07/31 08:21:49;;;;;;;0.22;0.15;;;34.80;40.80;;;;;;4984648;28;20054;-76
2023/07/31 08:24:15;;;;;;;1.40;0.25;;;35.60;39.70;;;;;;4984487;28;20030;-76
2023/07/31 08:26:41;;;;;;;0.00;0.00;;;36.30;39.20;;;;;;4982557;28;20026;-76
2023/07/31 08:29:06;;;;;;;0.00;0.00;;;35.70;38.70;;;;;;4986206;28;20069;-76
2023/07/31 08:31:32;;;;;;;0.20;0.20;;;35.90;37.60;;;;;;4985948;28;20448;-76
2023/07/31 08:33:58;;;;;;;0.00;0.00;;;35.90;37.30;;;;;;4986087;28;20022;-76
2023/07/31 08:36:23;;;;;;;0.00;0.00;;;36.50;37.60;;;;;;4985829;28;20030;-76
2023/07/31 08:38:50;;;;;;;0.32;0.32;;;36.50;38.70;;;;;;4986146;28;20034;-77
2023/07/31 08:41:19;;;;;;;0.10;0.10;;;36.70;37.70;;;;;;4985883;28;20112;-76
2023/07/31 08:43:49;;;;;;;4.55;0.40;;;37.20;36.40;;;;;;4986240;28;20033;-75
2023/07/31 08:46:15;;;;;;;0.10;0.10;;;37.20;37.60;;;;;;4985935;28;20050;-76
2023/07/31 08:48:42;;;;;;;0.05;0.05;;;37.30;36.80;;;;;;4985565;28;20049;-77
2023/07/31 08:51:08;;;;;;;0.55;0.55;;;37.50;37.00;;;;;;4985408;28;20073;-76
2023/07/31 08:53:34;;;;;;;0.75;0.35;;;37.50;35.90;;;;;;4986062;28;20117;-76
2023/07/31 08:56:00;;;;;;;0.10;0.10;;;37.60;36.10;;;;;;4979602;28;20406;-76
2023/07/31 08:58:30;;;;;;;0.43;0.43;;;37.60;34.80;;;;;;4984882;28;20038;-76
2023/07/31 09:00:56;;;;;;;0.03;0.03;;;38.30;35.70;;;;;;4984944;28;20089;-76
2023/07/31 09:03:24;;;;;;;0.82;0.47;;;38.30;35.20;;;;;;4982335;28;20031;-76
2023/07/31 09:05:50;;;;;;;1.17;0.45;;;36.90;33.80;;;;;;4985123;28;20125;-76
2023/07/31 09:08:20;;;;;;;0.30;0.30;;;35.60;35.20;;;;;;4985473;28;20026;-76
2023/07/31 09:10:46;;;;;;;0.00;0.00;;;35.20;35.60;;;;;;4985239;28;20038;-76
2023/07/31 09:13:13;;;;;;;0.10;0.10;;;37.40;34.90;;;;;;4985037;28;20034;-76
2023/07/31 09:15:42;;;;;;;0.90;0.80;;;37.20;34.20;;;;;;4984084;28;20039;-76
2023/07/31 09:18:08;;;;;;;0.00;0.00;;;36.10;35.90;;;;;;4978769;28;20101;-76
2023/07/31 09:20:34;;;;;;;0.10;0.10;;;37.70;35.00;;;;;;4979971;28;20142;-77
2023/07/31 09:23:14;;;;;;;0.00;0.00;;;38.30;34.10;;;;;;4982861;28;20089;-76
2023/07/31 09:25:43;;;;;;;0.10;0.10;;;38.20;33.70;;;;;;4980291;28;20084;-76
2023/07/31 09:28:10;;;;;;;0.10;0.10;;;38.90;33.00;;;;;;4982414;28;20057;-76
2023/07/31 09:30:46;;;;;;;0.10;0.10;;;39.10;33.30;;;;;;4984605;28;20030;-76
2023/07/31 09:33:13;;;;;;;0.00;0.00;;;38.10;33.70;;;;;;4983460;28;20093;-76
2023/07/31 09:35:40;;;;;;;0.00;0.00;;;37.60;32.80;;;;;;4976477;28;20602;-77
2023/07/31 09:38:11;;;;;;;0.28;0.28;;;38.20;34.60;;;;;;4983934;28;20069;-76
2023/07/31 09:40:39;;;;;;;0.85;0.60;;;38.50;33.60;;;;;;4984793;28;20033;-77
2023/07/31 09:43:13;;;;;;;0.20;0.20;;;38.50;32.80;;;;;;4983546;28;20080;-76
2023/07/31 09:45:42;;;;;;;0.03;0.03;;;38.80;32.60;;;;;;4982999;28;20072;-77
2023/07/31 09:48:10;;;;;;;0.43;0.43;;;38.40;33.30;;;;;;4980511;28;20027;-78
2023/07/31 09:50:39;;;;;;;0.10;0.10;;;37.80;33.50;;;;;;4984526;28;20478;-77
2023/07/31 09:53:08;;;;;;;1.85;0.57;;;37.70;32.30;;;;;;4983590;28;20620;-76
2023/07/31 09:55:34;;;;;;;0.10;0.10;;;37.50;31.10;;;;;;4978406;28;20058;-77
2023/07/31 09:58:09;;;;;;;0.17;0.10;;;38.60;31.80;;;;;;4983922;28;20042;-76
2023/07/31 10:00:35;;;;;;;0.00;0.00;;;38.70;32.10;;;;;;4979825;28;20068;-76
2023/07/31 10:03:06;;;;;;;0.00;0.00;;;38.90;31.90;;;;;;4982184;28;20047;-75
2023/07/31 10:05:35;;;;;;;0.00;0.00;;;39.10;31.70;;;;;;4980692;28;20027;-76
2023/07/31 10:08:01;;;;;;;0.00;0.00;;;38.90;29.60;;;;;;4982285;28;20030;-77
2023/07/31 10:10:27;;;;;;;0.88;0.85;;;38.70;31.20;;;;;;4983713;28;20038;-76
2023/07/31 10:12:54;;;;;;;0.10;0.10;;;39.20;31.30;;;;;;4978410;28;20160;-77
2023/07/31 10:15:20;;;;;;;0.00;0.00;;;38.60;29.90;;;;;;4981128;28;20031;-76
2023/07/31 10:17:49;;;;;;;;;;;37.80;31.60;;;;;;4979404;28;20181;-77
2023/07/31 10:20:16;;;;;;;0.00;0.00;;;38.40;30.90;;;;;;4982098;28;19957;-76
2023/07/31 10:22:43;;;;;;;0.08;0.08;;;38.80;30.20;;;;;;4981767;28;20626;-76
2023/07/31 10:25:09;;;;;;;0.05;0.05;;;38.60;31.00;;;;;;4981750;28;20022;-76
2023/07/31 10:27:41;;;;;;;0.20;0.20;;;37.70;30.50;;;;;;4983499;28;20033;-76
2023/07/31 10:30:15;;;;;;;0.00;0.00;;;39.10;32.50;;;;;;4983113;28;20520;-76
2023/07/31 10:32:43;;;;;;;0.20;0.20;;;37.00;32.60;;;;;;4982052;28;20029;-76
2023/07/31 10:35:09;;;;;;;0.20;0.20;;;36.90;31.10;;;;;;4983052;28;20116;-77
2023/07/31 10:37:39;;;;;;;0.30;0.30;;;37.00;29.80;;;;;;4981460;28;20034;-76
2023/07/31 10:40:15;;;;;;;0.25;0.20;;;35.90;31.70;;;;;;4982079;28;20137;-76
2023/07/31 10:42:47;;;;;;;0.00;0.00;;;34.00;30.40;;;;;;4982501;28;20041;-76
2023/07/31 10:45:13;;;;;;;0.10;0.10;;;33.10;35.20;;;;;;4982043;28;20038;-76
2023/07/31 10:47:42;;;;;;;;;;;32.80;36.90;;;;;;4983545;28;20022;-77
2023/07/31 10:50:16;;;;;;;0.00;0.00;;;31.60;38.20;;;;;;4982718;28;19909;-76
2023/07/31 10:52:49;;;;;;;0.00;0.00;;;30.60;37.00;;;;;;4985487;28;20030;-76
2023/07/31 10:55:26;;;;;;;0.35;0.28;;;29.80;37.80;;;;;;4980474;28;20084;-76
2023/07/31 10:57:53;;;;;;;0.00;0.00;;;29.70;42.70;;;;;;4979824;28;20038;-76
2023/07/31 11:00:21;;;;;;;0.52;0.52;;;29.40;40.80;;;;;;4975800;28;20454;-76
2023/07/31 11:03:14;;;;;;;0.60;0.30;;;29.40;39.20;;;;;;4982137;28;20058;-76
2023/07/31 11:05:45;;;;;;;0.20;0.20;;;29.70;39.60;;;;;;4978332;28;20041;-77
2023/07/31 11:08:28;;;;;;;0.88;0.38;;;29.40;41.50;;;;;;4980597;28;20085;-77
2023/07/31 11:11:03;;;;;;;0.20;0.20;;;28.30;38.20;;;;;;4979536;28;20236;-77
2023/07/31 11:13:44;;;;;;;0.25;0.25;;;28.80;40.10;;;;;;4971959;28;20120;-78
2023/07/31 11:16:11;;;;;;;0.05;0.05;;;28.30;39.60;;;;;;4983185;28;20038;-77
2023/07/31 11:18:40;;;;;;;0.35;0.35;;;28.10;42.70;;;;;;4982463;28;20469;-77
2023/07/31 11:21:06;;;;;;;0.13;0.13;;;28.60;42.60;;;;;;4980198;28;20584;-77
2023/07/31 11:23:32;;;;;;;0.43;0.32;;;28.80;39.60;;;;;;4982407;28;20043;-77
2023/07/31 11:26:01;;;;;;;0.00;0.00;;;28.80;41.40;;;;;;4982673;28;20023;-77
2023/07/31 11:28:33;;;;;;;0.00;0.00;;;28.10;39.10;;;;;;4981289;28;20027;-76
2023/07/31 11:30:59;;;;;;;0.08;0.08;;;28.20;41.90;;;;;;4982852;28;20022;-77
2023/07/31 11:33:25;;;;;;;0.10;0.10;;;28.00;40.90;;;;;;4982363;28;20053;-77
2023/07/31 11:35:51;;;;;;;0.05;0.05;;;27.90;41.90;;;;;;4984709;28;20800;-77
2023/07/31 11:38:31;;;;;;;0.30;0.30;;;27.20;41.90;;;;;;4986310;28;20112;-79
2023/07/31 11:40:59;;;;;;;0.35;0.35;;;27.30;43.30;;;;;;4985697;28;20027;-76
2023/07/31 11:43:26;;;;;;;0.00;0.00;;;27.30;43.00;;;;;;4987053;28;20113;-78
2023/07/31 11:45:54;;;;;;;0.00;0.00;;;27.50;44.10;;;;;;4972824;28;20030;-77
2023/07/31 11:48:22;;;;;;;0.00;0.00;;;27.50;44.10;;;;;;4981497;28;20780;-78
2023/07/31 11:50:50;;;;;;;0.20;0.20;;;27.20;46.60;;;;;;4983891;28;20022;-78
2023/07/31 11:53:20;;;;;;;0.03;0.03;;;27.40;45.70;;;;;;4985601;28;20032;-77
2023/07/31 11:55:47;;;;;;;0.00;0.00;;;27.30;46.60;;;;;;4985739;28;20026;-77
2023/07/31 11:58:14;;;;;;;;;;;27.10;44.50;;;;;;4984361;28;20046;-77
2023/07/31 12:00:40;;;;;;;0.32;0.32;;;26.90;45.40;;;;;;4977137;28;19917;-77
2023/07/31 12:03:06;;;;;;;0.20;0.20;;;26.70;46.30;;;;;;4986120;28;20049;-78
2023/07/31 12:05:32;;;;;;;0.35;0.35;;;27.00;46.40;;;;;;4975308;28;20126;-77
2023/07/31 12:07:58;;;;;;;0.60;0.60;;;27.00;45.70;;;;;;4984396;28;20041;-78
2023/07/31 12:10:28;;;;;;;0.00;0.00;;;26.90;47.30;;;;;;4985940;28;20269;-77
2023/07/31 12:12:58;;;;;;;0.40;0.40;;;27.00;48.40;;;;;;4983310;28;20058;-77
2023/07/31 12:15:39;;;;;;;0.03;0.03;;;26.70;47.30;;;;;;4986351;28;20391;-77
2023/07/31 12:18:18;;;;;;;0.30;0.30;;;27.00;47.80;;;;;;4985608;28;20828;-78
2023/07/31 12:20:49;;;;;;;0.00;0.00;;;26.70;45.70;;;;;;4984508;28;20034;-77
2023/07/31 12:23:27;;;;;;;0.17;0.15;;;26.80;47.90;;;;;;4986294;28;20026;-77
2023/07/31 12:26:14;;;;;;;0.00;0.00;;;26.70;46.20;;;;;;4986184;28;20054;-77
2023/07/31 12:28:44;;;;;;;0.00;0.00;;;26.50;48.40;;;;;;4986446;28;20409;-77
2023/07/31 12:31:21;;;;;;;0.00;0.00;;;26.40;46.40;;;;;;4985075;28;20125;-77
2023/07/31 12:33:49;;;;;;;0.10;0.10;;;26.30;47.70;;;;;;4986110;28;20578;-77
2023/07/31 12:36:20;;;;;;;0.20;0.20;;;26.30;47.30;;;;;;4984659;28;20731;-77
2023/07/31 12:38:46;;;;;;;0.38;0.20;;;26.40;48.50;;;;;;4986115;28;20129;-77
2023/07/31 12:41:12;;;;;;;0.10;0.10;;;26.40;47.90;;;;;;4986710;28;20113;-76
2023/07/31 12:43:41;;;;;;;0.13;0.13;;;26.30;48.60;;;;;;4986323;28;20109;-76
2023/07/31 12:46:09;;;;;;;0.00;0.00;;;26.10;49.50;;;;;;4984369;28;20502;-77
2023/07/31 12:48:37;;;;;;;0.20;0.20;;;26.20;48.60;;;;;;4978319;28;20026;-77